sensor_id;sensor_type;location;lat;lon;timestamp;P1;durP1;ratioP1;P2;durP2;ratioP2
5710;SDS011;61291;52.524;13.422;2022-09-03T00:02:21;60.90;;;56.40;;
5710;SDS011;61291;52.524;13.422;2022-09-03T00:05:05;61.53;;;56.83;;
5710;SDS011;61291;52.524;13.422;2022-09-03T00:08:11;65.50;;;60.80;;
5710;SDS011;61291;52.524;13.422;2022-09-03T00:13:52;63.80;;;59.10;;
5710;SDS011;61291;52.524;13.422;2022-09-03T00:16:23;67.77;;;62.97;;
5710;SDS011;61291;52.524;13.422;2022-09-03T00:18:55;66.07;;;61.47;;
5710;SDS011;61291;52.524;13.422;2022-09-03T00:21:40;63.30;;;58.10;;
5710;SDS011;61291;52.524;13.422;2022-09-03T00:24:12;62.90;;;58.27;;
5710;SDS011;61291;52.524;13.422;2022-09-03T00:26:42;63.30;;;58.10;;
5710;SDS011;61291;52.524;13.422;2022-09-03T00:29:17;62.10;;;57.57;;
5710;SDS011;61291;52.524;13.422;2022-09-03T00:32:19;63.17;;;58.53;;
5710;SDS011;61291;52.524;13.422;2022-09-03T00:35:00;67.70;;;63.03;;
5710;SDS011;61291;52.524;13.422;2022-09-03T00:37:29;67.80;;;62.80;;
5710;SDS011;61291;52.524;13.422;2022-09-03T00:39:56;64.60;;;59.80;;
5710;SDS011;61291;52.524;13.422;2022-09-03T00:42:28;62.97;;;58.47;;
5710;SDS011;61291;52.524;13.422;2022-09-03T00:45:15;62.77;;;58.20;;
5710;SDS011;61291;52.524;13.422;2022-09-03T00:47:58;59.93;;;55.50;;
5710;SDS011;61291;52.524;13.422;2022-09-03T00:56:17;57.83;;;53.53;;
5710;SDS011;61291;52.524;13.422;2022-09-03T00:58:54;63.47;;;58.77;;
5710;SDS011;61291;52.524;13.422;2022-09-03T01:04:40;63.87;;;58.93;;
5710;SDS011;61291;52.524;13.422;2022-09-03T01:18:02;60.30;;;55.70;;
5710;SDS011;61291;52.524;13.422;2022-09-03T01:23:47;62.37;;;57.77;;
5710;SDS011;61291;52.524;13.422;2022-09-03T01:26:40;63.70;;;58.70;;
5710;SDS011;61291;52.524;13.422;2022-09-03T01:37:29;62.13;;;57.33;;
5710;SDS011;61291;52.524;13.422;2022-09-03T01:40:15;61.70;;;57.20;;
5710;SDS011;61291;52.524;13.422;2022-09-03T01:43:05;60.90;;;56.30;;
5710;SDS011;61291;52.524;13.422;2022-09-03T01:45:53;61.50;;;57.10;;
5710;SDS011;61291;52.524;13.422;2022-09-03T01:51:19;60.40;;;55.67;;
5710;SDS011;61291;52.524;13.422;2022-09-03T01:57:04;62.20;;;57.80;;
5710;SDS011;61291;52.524;13.422;2022-09-03T01:59:50;62.67;;;58.27;;
5710;SDS011;61291;52.524;13.422;2022-09-03T02:02:23;62.60;;;58.13;;
5710;SDS011;61291;52.524;13.422;2022-09-03T02:05:11;69.43;;;64.70;;
5710;SDS011;61291;52.524;13.422;2022-09-03T02:07:49;71.20;;;65.53;;
5710;SDS011;61291;52.524;13.422;2022-09-03T02:10:21;65.50;;;60.90;;
5710;SDS011;61291;52.524;13.422;2022-09-03T02:12:55;72.53;;;67.60;;
5710;SDS011;61291;52.524;13.422;2022-09-03T02:15:25;67.90;;;63.00;;
5710;SDS011;61291;52.524;13.422;2022-09-03T02:17:52;77.90;;;72.63;;
5710;SDS011;61291;52.524;13.422;2022-09-03T02:20:21;71.17;;;66.33;;
5710;SDS011;61291;52.524;13.422;2022-09-03T02:22:50;70.80;;;65.90;;
5710;SDS011;61291;52.524;13.422;2022-09-03T02:25:18;63.17;;;58.57;;
5710;SDS011;61291;52.524;13.422;2022-09-03T02:27:46;65.03;;;60.53;;
5710;SDS011;61291;52.524;13.422;2022-09-03T02:30:16;62.83;;;58.07;;
5710;SDS011;61291;52.524;13.422;2022-09-03T02:32:42;72.57;;;67.23;;
5710;SDS011;61291;52.524;13.422;2022-09-03T02:35:08;73.03;;;67.73;;
5710;SDS011;61291;52.524;13.422;2022-09-03T02:37:34;58.83;;;54.30;;
5710;SDS011;61291;52.524;13.422;2022-09-03T02:39:59;62.80;;;58.10;;
5710;SDS011;61291;52.524;13.422;2022-09-03T02:42:25;63.30;;;58.70;;
5710;SDS011;61291;52.524;13.422;2022-09-03T02:44:52;64.60;;;60.00;;
5710;SDS011;61291;52.524;13.422;2022-09-03T02:47:28;63.73;;;59.23;;
5710;SDS011;61291;52.524;13.422;2022-09-03T02:49:59;70.50;;;65.50;;
5710;SDS011;61291;52.524;13.422;2022-09-03T02:52:25;64.73;;;59.63;;
5710;SDS011;61291;52.524;13.422;2022-09-03T02:54:50;77.87;;;72.33;;
5710;SDS011;61291;52.524;13.422;2022-09-03T02:57:16;72.93;;;67.93;;
5710;SDS011;61291;52.524;13.422;2022-09-03T02:59:42;66.27;;;61.33;;
5710;SDS011;61291;52.524;13.422;2022-09-03T03:02:11;66.63;;;61.60;;
5710;SDS011;61291;52.524;13.422;2022-09-03T03:04:38;67.13;;;62.23;;
5710;SDS011;61291;52.524;13.422;2022-09-03T03:07:04;63.33;;;58.43;;
5710;SDS011;61291;52.524;13.422;2022-09-03T03:09:30;63.93;;;59.23;;
5710;SDS011;61291;52.524;13.422;2022-09-03T03:11:55;62.97;;;58.47;;
5710;SDS011;61291;52.524;13.422;2022-09-03T03:14:21;63.00;;;58.50;;
5710;SDS011;61291;52.524;13.422;2022-09-03T03:16:47;63.00;;;58.40;;
5710;SDS011;61291;52.524;13.422;2022-09-03T03:19:13;63.13;;;58.23;;
5710;SDS011;61291;52.524;13.422;2022-09-03T03:21:39;64.43;;;59.63;;
5710;SDS011;61291;52.524;13.422;2022-09-03T03:24:04;62.23;;;57.77;;
5710;SDS011;61291;52.524;13.422;2022-09-03T03:26:30;62.30;;;57.90;;
5710;SDS011;61291;52.524;13.422;2022-09-03T03:28:57;60.97;;;56.67;;
5710;SDS011;61291;52.524;13.422;2022-09-03T03:31:26;65.17;;;60.47;;
5710;SDS011;61291;52.524;13.422;2022-09-03T03:33:53;65.33;;;60.33;;
5710;SDS011;61291;52.524;13.422;2022-09-03T03:36:20;64.83;;;60.00;;
5710;SDS011;61291;52.524;13.422;2022-09-03T03:38:47;64.10;;;59.60;;
5710;SDS011;61291;52.524;13.422;2022-09-03T03:41:21;66.50;;;61.90;;
5710;SDS011;61291;52.524;13.422;2022-09-03T03:43:55;65.80;;;60.90;;
5710;SDS011;61291;52.524;13.422;2022-09-03T03:46:27;63.50;;;58.90;;
5710;SDS011;61291;52.524;13.422;2022-09-03T03:48:54;63.57;;;59.00;;
5710;SDS011;61291;52.524;13.422;2022-09-03T03:51:19;63.50;;;58.37;;
5710;SDS011;61291;52.524;13.422;2022-09-03T03:53:46;64.20;;;59.20;;
5710;SDS011;61291;52.524;13.422;2022-09-03T03:56:12;64.70;;;59.60;;
5710;SDS011;61291;52.524;13.422;2022-09-03T03:58:39;65.07;;;60.57;;
5710;SDS011;61291;52.524;13.422;2022-09-03T04:01:09;63.67;;;58.50;;
5710;SDS011;61291;52.524;13.422;2022-09-03T04:03:37;66.93;;;62.03;;
5710;SDS011;61291;52.524;13.422;2022-09-03T04:06:03;63.57;;;59.13;;
5710;SDS011;61291;52.524;13.422;2022-09-03T04:08:30;67.33;;;62.53;;
5710;SDS011;61291;52.524;13.422;2022-09-03T04:11:00;66.97;;;62.10;;
5710;SDS011;61291;52.524;13.422;2022-09-03T04:13:29;67.73;;;62.30;;
5710;SDS011;61291;52.524;13.422;2022-09-03T04:15:59;66.20;;;61.30;;
5710;SDS011;61291;52.524;13.422;2022-09-03T04:18:26;67.53;;;62.53;;
5710;SDS011;61291;52.524;13.422;2022-09-03T04:20:51;69.03;;;63.93;;
5710;SDS011;61291;52.524;13.422;2022-09-03T04:23:17;70.17;;;64.77;;
5710;SDS011;61291;52.524;13.422;2022-09-03T04:25:42;66.87;;;61.60;;
5710;SDS011;61291;52.524;13.422;2022-09-03T04:28:08;65.80;;;60.90;;
5710;SDS011;61291;52.524;13.422;2022-09-03T04:30:35;65.47;;;60.13;;
5710;SDS011;61291;52.524;13.422;2022-09-03T04:33:01;67.40;;;62.60;;
5710;SDS011;61291;52.524;13.422;2022-09-03T04:35:26;65.97;;;60.40;;
5710;SDS011;61291;52.524;13.422;2022-09-03T04:37:53;66.80;;;61.20;;
5710;SDS011;61291;52.524;13.422;2022-09-03T04:40:23;64.43;;;59.53;;
5710;SDS011;61291;52.524;13.422;2022-09-03T04:42:48;66.97;;;62.27;;
5710;SDS011;61291;52.524;13.422;2022-09-03T04:45:14;64.10;;;59.10;;
5710;SDS011;61291;52.524;13.422;2022-09-03T04:47:42;66.03;;;61.03;;
5710;SDS011;61291;52.524;13.422;2022-09-03T04:50:10;67.17;;;61.80;;
5710;SDS011;61291;52.524;13.422;2022-09-03T04:52:37;64.00;;;58.30;;
5710;SDS011;61291;52.524;13.422;2022-09-03T04:55:02;62.70;;;58.00;;
5710;SDS011;61291;52.524;13.422;2022-09-03T04:57:29;63.23;;;58.30;;
5710;SDS011;61291;52.524;13.422;2022-09-03T04:59:58;66.67;;;61.77;;
5710;SDS011;61291;52.524;13.422;2022-09-03T05:02:24;63.50;;;58.57;;
5710;SDS011;61291;52.524;13.422;2022-09-03T05:04:49;66.40;;;61.40;;
5710;SDS011;61291;52.524;13.422;2022-09-03T05:07:16;68.37;;;63.17;;
5710;SDS011;61291;52.524;13.422;2022-09-03T05:09:41;62.70;;;57.87;;
5710;SDS011;61291;52.524;13.422;2022-09-03T05:12:07;69.13;;;64.07;;
5710;SDS011;61291;52.524;13.422;2022-09-03T05:14:33;66.40;;;61.30;;
5710;SDS011;61291;52.524;13.422;2022-09-03T05:16:58;62.60;;;57.90;;
5710;SDS011;61291;52.524;13.422;2022-09-03T05:19:23;60.93;;;56.43;;
5710;SDS011;61291;52.524;13.422;2022-09-03T05:21:49;61.70;;;57.00;;
5710;SDS011;61291;52.524;13.422;2022-09-03T05:24:15;61.40;;;57.03;;
5710;SDS011;61291;52.524;13.422;2022-09-03T05:26:40;62.63;;;58.13;;
5710;SDS011;61291;52.524;13.422;2022-09-03T05:29:06;59.00;;;54.90;;
5710;SDS011;61291;52.524;13.422;2022-09-03T05:31:32;61.53;;;57.33;;
5710;SDS011;61291;52.524;13.422;2022-09-03T05:34:01;61.43;;;56.93;;
5710;SDS011;61291;52.524;13.422;2022-09-03T05:36:31;61.47;;;57.27;;
5710;SDS011;61291;52.524;13.422;2022-09-03T05:38:59;62.20;;;57.50;;
5710;SDS011;61291;52.524;13.422;2022-09-03T05:41:25;61.77;;;57.40;;
5710;SDS011;61291;52.524;13.422;2022-09-03T05:43:52;64.00;;;59.30;;
5710;SDS011;61291;52.524;13.422;2022-09-03T05:46:20;64.23;;;58.20;;
5710;SDS011;61291;52.524;13.422;2022-09-03T05:48:50;63.40;;;58.90;;
5710;SDS011;61291;52.524;13.422;2022-09-03T05:51:15;61.03;;;56.33;;
5710;SDS011;61291;52.524;13.422;2022-09-03T05:53:46;61.93;;;57.23;;
5710;SDS011;61291;52.524;13.422;2022-09-03T05:56:16;61.60;;;56.70;;
5710;SDS011;61291;52.524;13.422;2022-09-03T05:58:47;64.23;;;59.90;;
5710;SDS011;61291;52.524;13.422;2022-09-03T06:01:15;60.33;;;56.10;;
5710;SDS011;61291;52.524;13.422;2022-09-03T06:03:46;62.63;;;58.10;;
5710;SDS011;61291;52.524;13.422;2022-09-03T06:06:22;65.27;;;60.47;;
5710;SDS011;61291;52.524;13.422;2022-09-03T06:08:52;60.42;;;56.00;;
5710;SDS011;61291;52.524;13.422;2022-09-03T06:11:19;61.73;;;57.20;;
5710;SDS011;61291;52.524;13.422;2022-09-03T06:13:47;61.27;;;56.60;;
5710;SDS011;61291;52.524;13.422;2022-09-03T06:16:12;66.90;;;62.30;;
5710;SDS011;61291;52.524;13.422;2022-09-03T06:18:38;61.90;;;57.60;;
5710;SDS011;61291;52.524;13.422;2022-09-03T06:21:05;62.17;;;57.97;;
5710;SDS011;61291;52.524;13.422;2022-09-03T06:23:31;65.87;;;61.00;;
5710;SDS011;61291;52.524;13.422;2022-09-03T06:25:59;64.73;;;60.40;;
5710;SDS011;61291;52.524;13.422;2022-09-03T06:28:34;65.83;;;61.23;;
5710;SDS011;61291;52.524;13.422;2022-09-03T06:31:03;64.10;;;59.00;;
5710;SDS011;61291;52.524;13.422;2022-09-03T06:33:31;62.43;;;57.93;;
5710;SDS011;61291;52.524;13.422;2022-09-03T06:35:57;62.97;;;58.40;;
5710;SDS011;61291;52.524;13.422;2022-09-03T06:38:25;66.20;;;61.13;;
5710;SDS011;61291;52.524;13.422;2022-09-03T06:40:55;62.07;;;57.03;;
5710;SDS011;61291;52.524;13.422;2022-09-03T06:43:26;59.30;;;54.87;;
5710;SDS011;61291;52.524;13.422;2022-09-03T06:45:56;63.60;;;59.13;;
5710;SDS011;61291;52.524;13.422;2022-09-03T06:48:32;62.80;;;57.53;;
5710;SDS011;61291;52.524;13.422;2022-09-03T06:51:18;56.25;;;51.75;;
5710;SDS011;61291;52.524;13.422;2022-09-03T06:53:47;63.57;;;58.33;;
5710;SDS011;61291;52.524;13.422;2022-09-03T06:56:15;63.03;;;58.33;;
5710;SDS011;61291;52.524;13.422;2022-09-03T06:58:43;62.50;;;57.90;;
5710;SDS011;61291;52.524;13.422;2022-09-03T07:01:11;57.00;;;52.35;;
5710;SDS011;61291;52.524;13.422;2022-09-03T07:03:42;63.87;;;58.53;;
5710;SDS011;61291;52.524;13.422;2022-09-03T07:06:10;61.10;;;56.50;;
5710;SDS011;61291;52.524;13.422;2022-09-03T07:08:37;59.67;;;55.17;;
5710;SDS011;61291;52.524;13.422;2022-09-03T07:11:03;61.77;;;56.70;;
5710;SDS011;61291;52.524;13.422;2022-09-03T07:13:33;58.30;;;53.80;;
5710;SDS011;61291;52.524;13.422;2022-09-03T07:16:03;58.40;;;54.20;;
5710;SDS011;61291;52.524;13.422;2022-09-03T07:18:34;59.43;;;54.70;;
5710;SDS011;61291;52.524;13.422;2022-09-03T07:21:00;58.57;;;54.20;;
5710;SDS011;61291;52.524;13.422;2022-09-03T07:23:27;60.83;;;55.90;;
5710;SDS011;61291;52.524;13.422;2022-09-03T07:25:55;58.90;;;54.20;;
5710;SDS011;61291;52.524;13.422;2022-09-03T07:28:22;61.00;;;56.33;;
5710;SDS011;61291;52.524;13.422;2022-09-03T07:30:51;54.60;;;50.40;;
5710;SDS011;61291;52.524;13.422;2022-09-03T07:33:17;59.40;;;55.30;;
5710;SDS011;61291;52.524;13.422;2022-09-03T07:35:43;60.57;;;56.17;;
5710;SDS011;61291;52.524;13.422;2022-09-03T07:38:09;59.90;;;55.10;;
5710;SDS011;61291;52.524;13.422;2022-09-03T07:40:35;61.17;;;56.37;;
5710;SDS011;61291;52.524;13.422;2022-09-03T07:43:03;58.60;;;54.20;;
5710;SDS011;61291;52.524;13.422;2022-09-03T07:45:30;54.17;;;49.97;;
5710;SDS011;61291;52.524;13.422;2022-09-03T07:47:57;56.13;;;51.90;;
5710;SDS011;61291;52.524;13.422;2022-09-03T07:50:22;55.37;;;51.27;;
5710;SDS011;61291;52.524;13.422;2022-09-03T07:52:48;56.17;;;52.27;;
5710;SDS011;61291;52.524;13.422;2022-09-03T07:55:13;59.50;;;55.20;;
5710;SDS011;61291;52.524;13.422;2022-09-03T07:57:39;58.13;;;53.60;;
5710;SDS011;61291;52.524;13.422;2022-09-03T08:00:05;57.90;;;53.60;;
5710;SDS011;61291;52.524;13.422;2022-09-03T08:02:35;58.37;;;54.00;;
5710;SDS011;61291;52.524;13.422;2022-09-03T08:05:01;57.30;;;53.30;;
5710;SDS011;61291;52.524;13.422;2022-09-03T08:07:29;63.93;;;59.17;;
5710;SDS011;61291;52.524;13.422;2022-09-03T08:09:55;60.67;;;56.23;;
5710;SDS011;61291;52.524;13.422;2022-09-03T08:12:21;57.73;;;53.37;;
5710;SDS011;61291;52.524;13.422;2022-09-03T08:14:47;61.47;;;57.27;;
5710;SDS011;61291;52.524;13.422;2022-09-03T08:17:12;61.27;;;56.97;;
5710;SDS011;61291;52.524;13.422;2022-09-03T08:19:38;56.40;;;52.10;;
5710;SDS011;61291;52.524;13.422;2022-09-03T08:22:05;59.10;;;54.50;;
5710;SDS011;61291;52.524;13.422;2022-09-03T08:24:31;56.27;;;52.03;;
5710;SDS011;61291;52.524;13.422;2022-09-03T08:26:58;54.53;;;50.53;;
5710;SDS011;61291;52.524;13.422;2022-09-03T08:29:24;61.67;;;57.57;;
5710;SDS011;61291;52.524;13.422;2022-09-03T08:31:51;52.90;;;49.27;;
5710;SDS011;61291;52.524;13.422;2022-09-03T08:34:17;56.03;;;52.03;;
5710;SDS011;61291;52.524;13.422;2022-09-03T08:36:43;61.50;;;56.90;;
5710;SDS011;61291;52.524;13.422;2022-09-03T08:39:10;57.73;;;53.63;;
5710;SDS011;61291;52.524;13.422;2022-09-03T08:44:31;59.97;;;55.37;;
5710;SDS011;61291;52.524;13.422;2022-09-03T08:52:53;60.10;;;55.73;;
5710;SDS011;61291;52.524;13.422;2022-09-03T08:55:35;61.57;;;57.17;;
5710;SDS011;61291;52.524;13.422;2022-09-03T08:58:27;61.97;;;57.63;;
5710;SDS011;61291;52.524;13.422;2022-09-03T09:01:04;60.50;;;56.00;;
5710;SDS011;61291;52.524;13.422;2022-09-03T09:06:29;60.97;;;56.43;;
5710;SDS011;61291;52.524;13.422;2022-09-03T09:11:55;60.83;;;56.40;;
5710;SDS011;61291;52.524;13.422;2022-09-03T09:20:05;65.50;;;60.43;;
5710;SDS011;61291;52.524;13.422;2022-09-03T09:22:44;64.37;;;59.63;;
5710;SDS011;61291;52.524;13.422;2022-09-03T09:25:17;64.00;;;59.57;;
5710;SDS011;61291;52.524;13.422;2022-09-03T09:27:47;63.03;;;58.10;;
5710;SDS011;61291;52.524;13.422;2022-09-03T09:30:18;61.90;;;57.40;;
5710;SDS011;61291;52.524;13.422;2022-09-03T09:32:44;60.20;;;55.90;;
5710;SDS011;61291;52.524;13.422;2022-09-03T09:35:11;65.40;;;60.60;;
5710;SDS011;61291;52.524;13.422;2022-09-03T09:37:48;67.40;;;61.93;;
5710;SDS011;61291;52.524;13.422;2022-09-03T09:40:32;64.63;;;59.70;;
5710;SDS011;61291;52.524;13.422;2022-09-03T09:43:05;66.57;;;61.53;;
5710;SDS011;61291;52.524;13.422;2022-09-03T09:45:32;63.77;;;59.13;;
5710;SDS011;61291;52.524;13.422;2022-09-03T09:47:58;63.00;;;58.40;;
5710;SDS011;61291;52.524;13.422;2022-09-03T09:50:26;56.90;;;52.80;;
5710;SDS011;61291;52.524;13.422;2022-09-03T09:52:58;58.67;;;54.43;;
5710;SDS011;61291;52.524;13.422;2022-09-03T09:55:30;61.43;;;56.83;;
5710;SDS011;61291;52.524;13.422;2022-09-03T09:58:06;67.10;;;61.63;;
5710;SDS011;61291;52.524;13.422;2022-09-03T10:00:33;60.20;;;55.17;;
5710;SDS011;61291;52.524;13.422;2022-09-03T10:03:01;64.23;;;58.27;;
5710;SDS011;61291;52.524;13.422;2022-09-03T10:05:34;67.47;;;62.47;;
5710;SDS011;61291;52.524;13.422;2022-09-03T10:08:04;69.30;;;64.10;;
5710;SDS011;61291;52.524;13.422;2022-09-03T10:10:43;61.63;;;57.10;;
5710;SDS011;61291;52.524;13.422;2022-09-03T10:13:16;66.60;;;61.33;;
5710;SDS011;61291;52.524;13.422;2022-09-03T10:15:50;66.97;;;61.80;;
5710;SDS011;61291;52.524;13.422;2022-09-03T10:18:36;62.60;;;58.00;;
5710;SDS011;61291;52.524;13.422;2022-09-03T10:21:11;63.70;;;59.20;;
5710;SDS011;61291;52.524;13.422;2022-09-03T10:26:39;65.23;;;60.70;;
5710;SDS011;61291;52.524;13.422;2022-09-03T10:29:09;60.53;;;55.87;;
5710;SDS011;61291;52.524;13.422;2022-09-03T10:34:17;57.20;;;53.10;;
5710;SDS011;61291;52.524;13.422;2022-09-03T10:36:56;63.90;;;59.30;;
5710;SDS011;61291;52.524;13.422;2022-09-03T10:44:57;59.97;;;55.37;;
5710;SDS011;61291;52.524;13.422;2022-09-03T10:47:38;60.53;;;56.33;;
5710;SDS011;61291;52.524;13.422;2022-09-03T10:55:53;60.77;;;56.70;;
5710;SDS011;61291;52.524;13.422;2022-09-03T11:01:41;62.43;;;58.07;;
5710;SDS011;61291;52.524;13.422;2022-09-03T11:04:39;63.57;;;59.00;;
5710;SDS011;61291;52.524;13.422;2022-09-03T11:07:13;62.37;;;57.93;;
5710;SDS011;61291;52.524;13.422;2022-09-03T11:09:47;61.73;;;57.37;;
5710;SDS011;61291;52.524;13.422;2022-09-03T11:12:27;69.30;;;64.00;;
5710;SDS011;61291;52.524;13.422;2022-09-03T11:15:11;61.27;;;56.53;;
5710;SDS011;61291;52.524;13.422;2022-09-03T11:17:47;61.10;;;56.60;;
5710;SDS011;61291;52.524;13.422;2022-09-03T11:20:20;68.53;;;63.10;;
5710;SDS011;61291;52.524;13.422;2022-09-03T11:22:48;65.33;;;60.30;;
5710;SDS011;61291;52.524;13.422;2022-09-03T11:25:18;58.70;;;54.60;;
5710;SDS011;61291;52.524;13.422;2022-09-03T11:30:24;61.57;;;57.03;;
5710;SDS011;61291;52.524;13.422;2022-09-03T11:33:07;60.77;;;55.23;;
5710;SDS011;61291;52.524;13.422;2022-09-03T11:38:06;62.50;;;57.27;;
5710;SDS011;61291;52.524;13.422;2022-09-03T11:45:48;60.73;;;56.17;;
5710;SDS011;61291;52.524;13.422;2022-09-03T11:48:42;60.13;;;56.03;;
5710;SDS011;61291;52.524;13.422;2022-09-03T11:51:28;56.80;;;52.50;;
5710;SDS011;61291;52.524;13.422;2022-09-03T11:53:58;64.47;;;59.97;;
5710;SDS011;61291;52.524;13.422;2022-09-03T11:56:25;62.00;;;57.60;;
5710;SDS011;61291;52.524;13.422;2022-09-03T11:58:59;62.90;;;58.40;;
5710;SDS011;61291;52.524;13.422;2022-09-03T12:01:28;60.00;;;55.70;;
5710;SDS011;61291;52.524;13.422;2022-09-03T12:09:39;62.53;;;58.43;;
5710;SDS011;61291;52.524;13.422;2022-09-03T12:15:13;59.87;;;55.67;;
5710;SDS011;61291;52.524;13.422;2022-09-03T12:20:41;55.40;;;51.27;;
5710;SDS011;61291;52.524;13.422;2022-09-03T12:23:11;56.97;;;52.97;;
5710;SDS011;61291;52.524;13.422;2022-09-03T12:25:45;59.13;;;54.90;;
5710;SDS011;61291;52.524;13.422;2022-09-03T12:28:12;57.40;;;52.90;;
5710;SDS011;61291;52.524;13.422;2022-09-03T12:30:43;56.07;;;52.17;;
5710;SDS011;61291;52.524;13.422;2022-09-03T12:33:12;60.80;;;56.10;;
5710;SDS011;61291;52.524;13.422;2022-09-03T12:35:42;60.60;;;56.30;;
5710;SDS011;61291;52.524;13.422;2022-09-03T12:38:07;60.87;;;56.40;;
5710;SDS011;61291;52.524;13.422;2022-09-03T12:40:40;57.40;;;52.40;;
5710;SDS011;61291;52.524;13.422;2022-09-03T12:43:11;60.57;;;55.97;;
5710;SDS011;61291;52.524;13.422;2022-09-03T12:45:44;56.53;;;52.43;;
5710;SDS011;61291;52.524;13.422;2022-09-03T12:48:15;62.90;;;58.17;;
5710;SDS011;61291;52.524;13.422;2022-09-03T12:50:42;60.77;;;56.27;;
5710;SDS011;61291;52.524;13.422;2022-09-03T12:53:10;56.67;;;52.67;;
5710;SDS011;61291;52.524;13.422;2022-09-03T12:55:42;58.53;;;54.63;;
5710;SDS011;61291;52.524;13.422;2022-09-03T13:00:56;56.13;;;52.27;;
5710;SDS011;61291;52.524;13.422;2022-09-03T13:03:41;56.17;;;52.17;;
5710;SDS011;61291;52.524;13.422;2022-09-03T13:06:15;57.07;;;52.97;;
5710;SDS011;61291;52.524;13.422;2022-09-03T13:08:49;58.80;;;54.70;;
5710;SDS011;61291;52.524;13.422;2022-09-03T13:11:19;56.13;;;52.07;;
5710;SDS011;61291;52.524;13.422;2022-09-03T13:16:34;55.47;;;51.20;;
5710;SDS011;61291;52.524;13.422;2022-09-03T13:22:24;62.90;;;57.70;;
5710;SDS011;61291;52.524;13.422;2022-09-03T13:33:47;60.23;;;55.17;;
5710;SDS011;61291;52.524;13.422;2022-09-03T13:36:18;61.73;;;56.73;;
5710;SDS011;61291;52.524;13.422;2022-09-03T13:38:51;62.83;;;57.10;;
5710;SDS011;61291;52.524;13.422;2022-09-03T13:42:02;56.80;;;52.80;;
5710;SDS011;61291;52.524;13.422;2022-09-03T13:44:41;63.80;;;59.20;;
5710;SDS011;61291;52.524;13.422;2022-09-03T13:49:59;57.97;;;53.70;;
5710;SDS011;61291;52.524;13.422;2022-09-03T13:52:50;58.83;;;54.93;;
5710;SDS011;61291;52.524;13.422;2022-09-03T14:00:30;60.17;;;55.77;;
5710;SDS011;61291;52.524;13.422;2022-09-03T14:06:12;62.27;;;57.10;;
5710;SDS011;61291;52.524;13.422;2022-09-03T14:14:18;59.77;;;55.17;;
5710;SDS011;61291;52.524;13.422;2022-09-03T14:19:54;60.97;;;56.23;;
5710;SDS011;61291;52.524;13.422;2022-09-03T14:25:19;56.30;;;52.13;;
5710;SDS011;61291;52.524;13.422;2022-09-03T14:27:46;58.23;;;54.27;;
5710;SDS011;61291;52.524;13.422;2022-09-03T14:30:18;57.93;;;54.00;;
5710;SDS011;61291;52.524;13.422;2022-09-03T14:33:00;56.13;;;52.03;;
5710;SDS011;61291;52.524;13.422;2022-09-03T14:35:47;59.43;;;55.30;;
5710;SDS011;61291;52.524;13.422;2022-09-03T14:38:40;60.57;;;55.90;;
5710;SDS011;61291;52.524;13.422;2022-09-03T14:41:21;61.13;;;56.43;;
5710;SDS011;61291;52.524;13.422;2022-09-03T14:46:32;58.43;;;53.73;;
5710;SDS011;61291;52.524;13.422;2022-09-03T14:54:58;62.30;;;57.77;;
5710;SDS011;61291;52.524;13.422;2022-09-03T14:57:42;58.53;;;54.07;;
5710;SDS011;61291;52.524;13.422;2022-09-03T15:00:20;59.83;;;55.63;;
5710;SDS011;61291;52.524;13.422;2022-09-03T15:03:00;53.83;;;49.83;;
5710;SDS011;61291;52.524;13.422;2022-09-03T15:11:51;54.57;;;50.10;;
5710;SDS011;61291;52.524;13.422;2022-09-03T15:14:21;58.13;;;53.57;;
5710;SDS011;61291;52.524;13.422;2022-09-03T15:16:58;59.37;;;55.23;;
5710;SDS011;61291;52.524;13.422;2022-09-03T15:19:53;58.77;;;54.20;;
5710;SDS011;61291;52.524;13.422;2022-09-03T15:22:31;58.00;;;53.60;;
5710;SDS011;61291;52.524;13.422;2022-09-03T15:25:18;57.30;;;53.10;;
5710;SDS011;61291;52.524;13.422;2022-09-03T15:28:10;57.90;;;53.67;;
5710;SDS011;61291;52.524;13.422;2022-09-03T15:30:47;59.97;;;55.87;;
5710;SDS011;61291;52.524;13.422;2022-09-03T15:36:34;58.30;;;54.00;;
5710;SDS011;61291;52.524;13.422;2022-09-03T15:39:37;59.50;;;55.50;;
5710;SDS011;61291;52.524;13.422;2022-09-03T15:42:03;58.60;;;54.30;;
5710;SDS011;61291;52.524;13.422;2022-09-03T15:44:41;64.13;;;59.50;;
5710;SDS011;61291;52.524;13.422;2022-09-03T15:47:13;61.67;;;57.20;;
5710;SDS011;61291;52.524;13.422;2022-09-03T15:58:51;61.37;;;56.70;;
5710;SDS011;61291;52.524;13.422;2022-09-03T16:01:36;60.70;;;56.47;;
5710;SDS011;61291;52.524;13.422;2022-09-03T16:06:46;64.17;;;59.63;;
5710;SDS011;61291;52.524;13.422;2022-09-03T16:12:09;59.60;;;55.20;;
5710;SDS011;61291;52.524;13.422;2022-09-03T16:14:57;60.77;;;56.40;;
5710;SDS011;61291;52.524;13.422;2022-09-03T16:20:41;62.93;;;58.57;;
5710;SDS011;61291;52.524;13.422;2022-09-03T16:23:11;60.40;;;55.70;;
5710;SDS011;61291;52.524;13.422;2022-09-03T16:25:51;61.57;;;57.13;;
5710;SDS011;61291;52.524;13.422;2022-09-03T16:31:01;65.47;;;60.43;;
5710;SDS011;61291;52.524;13.422;2022-09-03T16:33:55;57.47;;;53.03;;
5710;SDS011;61291;52.524;13.422;2022-09-03T16:42:20;58.30;;;54.33;;
5710;SDS011;61291;52.524;13.422;2022-09-03T16:44:58;57.43;;;53.60;;
5710;SDS011;61291;52.524;13.422;2022-09-03T16:48:06;58.87;;;54.80;;
5710;SDS011;61291;52.524;13.422;2022-09-03T16:50:41;61.00;;;56.73;;
5710;SDS011;61291;52.524;13.422;2022-09-03T16:53:40;57.67;;;53.87;;
5710;SDS011;61291;52.524;13.422;2022-09-03T16:56:45;56.90;;;52.80;;
5710;SDS011;61291;52.524;13.422;2022-09-03T16:59:40;59.87;;;55.77;;
5710;SDS011;61291;52.524;13.422;2022-09-03T17:02:32;55.73;;;51.33;;
5710;SDS011;61291;52.524;13.422;2022-09-03T17:08:18;56.90;;;52.50;;
5710;SDS011;61291;52.524;13.422;2022-09-03T17:14:13;56.87;;;52.07;;
5710;SDS011;61291;52.524;13.422;2022-09-03T17:16:52;57.23;;;53.00;;
5710;SDS011;61291;52.524;13.422;2022-09-03T17:19:34;56.40;;;52.30;;
5710;SDS011;61291;52.524;13.422;2022-09-03T17:24:52;55.17;;;51.40;;
5710;SDS011;61291;52.524;13.422;2022-09-03T17:33:06;57.80;;;53.80;;
5710;SDS011;61291;52.524;13.422;2022-09-03T17:38:42;58.17;;;54.27;;
5710;SDS011;61291;52.524;13.422;2022-09-03T17:41:22;58.10;;;54.00;;
5710;SDS011;61291;52.524;13.422;2022-09-03T17:44:12;58.10;;;53.30;;
5710;SDS011;61291;52.524;13.422;2022-09-03T17:46:48;57.50;;;53.23;;
5710;SDS011;61291;52.524;13.422;2022-09-03T17:49:20;60.37;;;55.73;;
5710;SDS011;61291;52.524;13.422;2022-09-03T17:52:06;58.67;;;54.67;;
5710;SDS011;61291;52.524;13.422;2022-09-03T17:54:46;59.00;;;54.90;;
5710;SDS011;61291;52.524;13.422;2022-09-03T17:57:23;56.70;;;52.90;;
5710;SDS011;61291;52.524;13.422;2022-09-03T18:00:00;60.67;;;56.00;;
5710;SDS011;61291;52.524;13.422;2022-09-03T18:05:43;64.73;;;60.53;;
5710;SDS011;61291;52.524;13.422;2022-09-03T18:08:23;61.40;;;57.20;;
5710;SDS011;61291;52.524;13.422;2022-09-03T18:11:01;58.10;;;54.30;;
5710;SDS011;61291;52.524;13.422;2022-09-03T18:16:21;59.23;;;55.17;;
5710;SDS011;61291;52.524;13.422;2022-09-03T18:18:58;57.70;;;53.80;;
5710;SDS011;61291;52.524;13.422;2022-09-03T18:21:33;59.80;;;55.60;;
5710;SDS011;61291;52.524;13.422;2022-09-03T18:24:34;58.57;;;54.27;;